Time;durP1;ratioP1;P1;durP2;ratioP2;P2;SDS_P1;SDS_P2;PMS_P1;PMS_P2;Temp;Humidity;BMP_temperature;BMP_pressure;BME280_temperature;BME280_humidity;BME280_pressure;Samples;Min_cycle;Max_cycle;Signal;HPM_P1;HPM_P2
2021/10/10 00:01:16;;;;;;;17.97;10.90;;;6.30;94.00;;;;;;4997513;28;20216;-87
2021/10/10 00:03:43;;;;;;;14.80;10.20;;;6.20;94.00;;;;;;5000234;28;20244;-87
2021/10/10 00:06:10;;;;;;;16.70;10.00;;;6.20;94.20;;;;;;5018136;28;20202;-87
2021/10/10 00:08:37;;;;;;;18.43;10.57;;;6.10;94.80;;;;;;4998201;28;20239;-87
2021/10/10 00:11:05;;;;;;;16.30;10.07;;;6.10;94.90;;;;;;4998487;28;20203;-85
2021/10/10 00:13:32;;;;;;;15.00;10.13;;;6.20;94.50;;;;;;4998071;28;20244;-87
2021/10/10 00:15:59;;;;;;;17.13;10.57;;;6.10;94.40;;;;;;5007799;28;20199;-87
2021/10/10 00:18:26;;;;;;;17.00;10.50;;;6.10;94.60;;;;;;4997956;28;20230;-86
2021/10/10 00:20:53;;;;;;;14.33;10.20;;;6.10;94.90;;;;;;4996125;28;20261;-86
2021/10/10 00:23:20;;;;;;;20.90;10.27;;;6.10;94.50;;;;;;5012231;28;20318;-87
2021/10/10 00:25:47;;;;;;;19.30;11.07;;;6.20;94.30;;;;;;5010360;28;20203;-86
2021/10/10 00:28:15;;;;;;;13.63;10.13;;;6.20;93.80;;;;;;5015454;28;20223;-87
2021/10/10 00:30:42;;;;;;;16.23;9.87;;;6.20;93.90;;;;;;5015770;28;20195;-87
2021/10/10 00:33:09;;;;;;;13.17;9.83;;;6.20;93.80;;;;;;5007344;28;20235;-87
2021/10/10 00:35:36;;;;;;;16.37;10.93;;;6.10;93.90;;;;;;4997877;28;20208;-86
2021/10/10 00:38:03;;;;;;;19.90;10.77;;;6.00;94.00;;;;;;5015445;28;20227;-84
2021/10/10 00:40:30;;;;;;;17.23;10.40;;;5.90;94.10;;;;;;5016469;28;20238;-85
2021/10/10 00:42:57;;;;;;;17.33;10.07;;;5.80;94.30;;;;;;5015425;28;20721;-85
2021/10/10 00:45:25;;;;;;;16.67;10.60;;;5.90;94.20;;;;;;5009700;28;20221;-86
2021/10/10 00:47:52;;;;;;;18.93;10.10;;;5.70;94.30;;;;;;4995212;28;20679;-87
2021/10/10 00:50:19;;;;;;;16.00;10.20;;;5.70;94.40;;;;;;5000908;28;20671;-84
2021/10/10 00:52:47;;;;;;;23.23;10.27;;;5.70;94.20;;;;;;5008419;28;20232;-84
2021/10/10 00:55:14;;;;;;;14.57;9.83;;;5.70;94.40;;;;;;5008301;28;20215;-84
2021/10/10 00:57:45;;;;;;;15.17;9.97;;;5.60;94.50;;;;;;5005378;28;20223;-84
2021/10/10 01:00:43;;;;;;;15.97;9.90;;;5.60;94.60;;;;;;4997514;28;20636;-85
2021/10/10 01:03:11;;;;;;;18.17;9.80;;;5.60;94.60;;;;;;5006823;28;20241;-84
2021/10/10 01:05:38;;;;;;;16.47;10.33;;;5.50;94.60;;;;;;5034196;28;20208;-84
2021/10/10 01:08:05;;;;;;;19.30;10.60;;;5.50;94.80;;;;;;5029596;28;20219;-84
2021/10/10 01:10:32;;;;;;;18.37;10.60;;;5.50;95.00;;;;;;5011913;28;20211;-85
2021/10/10 01:12:59;;;;;;;14.87;10.17;;;5.40;95.10;;;;;;5006692;28;20322;-86
2021/10/10 01:15:29;;;;;;;17.43;10.53;;;5.40;95.20;;;;;;5000510;28;20247;-85
2021/10/10 01:17:56;;;;;;;19.43;10.73;;;5.30;95.10;;;;;;5011396;28;20574;-85
2021/10/10 01:20:27;;;;;;;20.07;10.97;;;5.30;95.10;;;;;;5014792;28;20571;-85
2021/10/10 01:22:56;;;;;;;20.03;10.60;;;5.40;95.10;;;;;;4999351;28;20234;-84
2021/10/10 01:25:22;;;;;;;16.47;10.27;;;5.40;95.40;;;;;;5006185;28;20210;-84
2021/10/10 01:27:49;;;;;;;18.50;10.17;;;5.40;95.10;;;;;;5012177;28;20219;-85
2021/10/10 01:30:16;;;;;;;17.40;10.83;;;5.30;95.10;;;;;;5003600;28;20537;-84
2021/10/10 01:32:54;;;;;;;15.90;10.47;;;5.30;95.10;;;;;;4999230;28;20231;-84
2021/10/10 01:35:21;;;;;;;17.50;10.50;;;5.30;95.10;;;;;;4997675;28;20188;-84
2021/10/10 01:37:48;;;;;;;18.23;10.77;;;5.30;95.10;;;;;;4994388;28;20223;-84
2021/10/10 01:40:17;;;;;;;19.23;11.57;;;5.30;95.10;;;;;;5003247;28;20195;-85
2021/10/10 01:42:43;;;;;;;19.73;11.60;;;5.40;95.20;;;;;;4999036;28;20420;-85
2021/10/10 01:45:15;;;;;;;16.87;11.63;;;5.30;95.10;;;;;;4995232;28;20210;-84
2021/10/10 01:47:42;;;;;;;19.37;11.27;;;5.30;95.10;;;;;;5004689;28;20603;-84
2021/10/10 01:50:10;;;;;;;18.37;11.80;;;5.40;95.20;;;;;;5011113;28;20210;-84
2021/10/10 01:52:37;;;;;;;16.07;10.70;;;5.40;95.20;;;;;;5022421;28;20585;-85
2021/10/10 01:55:04;;;;;;;18.67;11.23;;;5.50;95.20;;;;;;5010712;28;20194;-85
2021/10/10 01:57:33;;;;;;;16.17;11.27;;;5.50;95.20;;;;;;5002626;28;20200;-85
2021/10/10 02:00:00;;;;;;;21.83;11.77;;;5.50;95.20;;;;;;5002557;28;20213;-85
2021/10/10 02:02:27;;;;;;;20.63;12.77;;;5.40;95.20;;;;;;5009466;28;20195;-85
2021/10/10 02:04:53;;;;;;;18.83;11.50;;;5.40;95.10;;;;;;5005765;28;20235;-84
2021/10/10 02:07:20;;;;;;;22.73;12.67;;;5.40;95.20;;;;;;5002394;28;20204;-84
2021/10/10 02:09:47;;;;;;;22.30;12.43;;;5.40;95.20;;;;;;4999117;28;20204;-84
2021/10/10 02:12:14;;;;;;;19.93;12.33;;;5.40;95.50;;;;;;5002485;28;20271;-83
2021/10/10 02:14:42;;;;;;;20.87;12.67;;;5.40;95.60;;;;;;5040381;28;20217;-85
2021/10/10 02:17:09;;;;;;;18.60;12.60;;;5.40;95.60;;;;;;5026662;28;20602;-87
2021/10/10 02:19:36;;;;;;;26.87;12.97;;;5.40;95.50;;;;;;5016759;28;20223;-85
2021/10/10 02:22:03;;;;;;;19.70;12.00;;;5.40;95.60;;;;;;5003981;28;20552;-85
2021/10/10 02:24:30;;;;;;;16.67;12.23;;;5.40;95.80;;;;;;5009640;28;20254;-84
2021/10/10 02:26:57;;;;;;;16.40;12.20;;;5.40;95.90;;;;;;5001343;28;20540;-85
2021/10/10 02:29:25;;;;;;;19.83;13.10;;;5.40;95.70;;;;;;5016814;28;20234;-86
2021/10/10 02:31:55;;;;;;;19.20;13.17;;;5.50;95.80;;;;;;5002447;28;20202;-86
2021/10/10 02:34:22;;;;;;;22.30;13.93;;;5.40;95.70;;;;;;5005674;28;20249;-85
2021/10/10 02:36:49;;;;;;;22.03;13.43;;;5.40;96.00;;;;;;5010034;28;20199;-85
2021/10/10 02:39:16;;;;;;;21.20;13.03;;;5.40;96.00;;;;;;5011837;28;20231;-85
2021/10/10 02:41:43;;;;;;;18.97;13.57;;;5.50;95.90;;;;;;4999165;28;20308;-85
2021/10/10 02:44:10;;;;;;;21.10;13.30;;;5.50;95.80;;;;;;5014128;28;20242;-85
2021/10/10 02:46:37;;;;;;;19.63;12.77;;;5.50;95.50;;;;;;5017295;28;20253;-85
2021/10/10 02:49:05;;;;;;;17.93;12.93;;;5.50;95.40;;;;;;4997933;28;20230;-85
2021/10/10 02:51:32;;;;;;;17.80;12.87;;;5.50;95.20;;;;;;5014959;28;20209;-85
2021/10/10 02:53:59;;;;;;;19.53;12.80;;;5.40;95.30;;;;;;5011089;28;20226;-85
2021/10/10 02:56:26;;;;;;;26.30;13.10;;;5.40;95.30;;;;;;5002827;28;20204;-84
2021/10/10 02:58:53;;;;;;;22.63;13.83;;;5.40;95.40;;;;;;4998632;28;20236;-85
2021/10/10 03:01:20;;;;;;;23.30;13.53;;;5.40;95.20;;;;;;5004657;28;20196;-84
2021/10/10 03:03:47;;;;;;;19.80;12.90;;;5.40;95.20;;;;;;5005386;28;20235;-85
2021/10/10 03:06:15;;;;;;;20.43;13.57;;;5.40;95.20;;;;;;5010437;28;20198;-85
2021/10/10 03:08:42;;;;;;;20.97;13.30;;;5.30;95.10;;;;;;5001625;28;20227;-85
2021/10/10 03:11:33;;;;;;;20.30;13.03;;;5.20;95.30;;;;;;5014962;28;20198;-85
2021/10/10 03:14:00;;;;;;;23.27;14.30;;;5.20;95.80;;;;;;5010724;28;20230;-85
2021/10/10 03:16:27;;;;;;;19.10;13.10;;;5.20;95.90;;;;;;5011370;28;20202;-85
2021/10/10 03:18:54;;;;;;;21.13;14.13;;;5.10;96.10;;;;;;5010388;28;20242;-84
2021/10/10 03:21:22;;;;;;;24.83;14.67;;;5.10;96.30;;;;;;5013919;28;20203;-85
2021/10/10 03:23:49;;;;;;;20.77;13.60;;;5.10;96.20;;;;;;5006392;28;20253;-85
2021/10/10 03:26:15;;;;;;;21.90;13.93;;;5.10;96.20;;;;;;5007028;28;20199;-84
2021/10/10 03:28:42;;;;;;;25.20;14.70;;;5.10;96.30;;;;;;5008384;28;20570;-85
2021/10/10 03:31:09;;;;;;;22.07;14.13;;;5.10;96.50;;;;;;5011381;28;20272;-85
2021/10/10 03:33:36;;;;;;;21.67;14.17;;;5.00;96.50;;;;;;5001722;28;20238;-85
2021/10/10 03:36:03;;;;;;;20.60;13.77;;;5.00;96.50;;;;;;5016564;28;20199;-85
2021/10/10 03:38:31;;;;;;;21.20;14.13;;;5.00;96.60;;;;;;5009628;28;20241;-85
2021/10/10 03:40:58;;;;;;;22.13;14.03;;;5.00;96.60;;;;;;5010310;28;20556;-85
2021/10/10 03:43:25;;;;;;;21.33;14.03;;;5.00;96.50;;;;;;5009062;28;20230;-85
2021/10/10 03:45:52;;;;;;;21.37;13.90;;;5.00;96.60;;;;;;5013752;28;20207;-85
2021/10/10 03:48:18;;;;;;;22.83;13.77;;;5.10;96.40;;;;;;5003995;28;20227;-85
2021/10/10 03:50:45;;;;;;;20.27;13.07;;;5.10;96.10;;;;;;5004416;28;20206;-85
2021/10/10 03:53:12;;;;;;;21.27;14.20;;;5.10;95.30;;;;;;5003104;28;20224;-85
2021/10/10 03:55:39;;;;;;;19.13;13.53;;;5.10;95.10;;;;;;5010994;28;20199;-84
2021/10/10 03:58:08;;;;;;;21.10;13.67;;;5.00;95.10;;;;;;4997851;28;20224;-85
2021/10/10 04:00:37;;;;;;;23.30;13.90;;;5.00;95.10;;;;;;5001380;28;20207;-85
2021/10/10 04:03:05;;;;;;;20.43;13.63;;;4.90;95.30;;;;;;4997449;28;20349;-85
2021/10/10 04:05:41;;;;;;;20.07;13.47;;;4.80;95.60;;;;;;5003054;28;20273;-85
2021/10/10 04:08:08;;;;;;;25.60;14.63;;;4.80;95.60;;;;;;4996388;28;20231;-85
2021/10/10 04:10:35;;;;;;;20.17;13.60;;;4.80;95.60;;;;;;5000821;28;20206;-89
2021/10/10 04:13:06;;;;;;;19.37;13.20;;;4.80;95.60;;;;;;5006260;28;20226;-84
2021/10/10 04:15:37;;;;;;;19.57;13.40;;;4.80;95.60;;;;;;5003454;28;20210;-84
2021/10/10 04:18:05;;;;;;;22.47;14.37;;;4.80;95.40;;;;;;4999992;28;20230;-84
2021/10/10 04:20:32;;;;;;;20.93;13.63;;;4.80;95.30;;;;;;5013930;28;20208;-85
2021/10/10 04:22:59;;;;;;;21.00;13.23;;;4.70;95.00;;;;;;5008274;28;20224;-84
2021/10/10 04:25:26;;;;;;;19.80;12.87;;;4.70;95.00;;;;;;5001451;28;20220;-84
2021/10/10 04:27:53;;;;;;;20.67;13.23;;;4.70;95.00;;;;;;5000339;28;20219;-84
2021/10/10 04:30:21;;;;;;;18.93;13.13;;;4.60;95.00;;;;;;5004810;28;20206;-83
2021/10/10 04:32:48;;;;;;;21.53;12.97;;;4.50;95.00;;;;;;5005767;28;20233;-84
2021/10/10 04:35:15;;;;;;;21.03;12.87;;;4.50;95.00;;;;;;5006487;28;20199;-83
2021/10/10 04:37:42;;;;;;;20.13;13.27;;;4.40;95.00;;;;;;5019057;28;20282;-83
2021/10/10 04:40:10;;;;;;;19.90;13.23;;;4.40;94.90;;;;;;5005731;28;20210;-85
2021/10/10 04:42:38;;;;;;;21.90;13.33;;;4.10;94.90;;;;;;5006608;28;20200;-84
2021/10/10 04:45:06;;;;;;;17.10;13.10;;;4.10;95.10;;;;;;5009131;28;20228;-83
2021/10/10 04:47:35;;;;;;;20.57;13.33;;;4.10;95.00;;;;;;5010565;28;20199;-84
2021/10/10 04:50:01;;;;;;;18.27;13.30;;;4.10;95.10;;;;;;5006014;28;20204;-84
2021/10/10 04:52:30;;;;;;;18.47;13.17;;;4.00;95.30;;;;;;5001136;28;20206;-84
2021/10/10 04:54:57;;;;;;;21.10;13.40;;;4.10;95.30;;;;;;5007139;28;20206;-84
2021/10/10 04:57:24;;;;;;;19.07;13.57;;;4.00;95.30;;;;;;4995994;28;20204;-84
2021/10/10 04:59:51;;;;;;;18.70;11.83;;;4.00;95.10;;;;;;5004018;28;20859;-83
2021/10/10 05:02:19;;;;;;;17.07;12.83;;;4.00;95.20;;;;;;5003636;28;20671;-84
2021/10/10 05:04:47;;;;;;;22.17;13.40;;;4.00;95.20;;;;;;5007574;28;20570;-84
2021/10/10 05:07:14;;;;;;;21.87;13.43;;;4.00;95.20;;;;;;5002041;28;20207;-85
2021/10/10 05:09:42;;;;;;;19.60;13.83;;;4.00;95.30;;;;;;5003611;28;20724;-84
2021/10/10 05:12:09;;;;;;;22.00;13.27;;;3.90;95.30;;;;;;5010440;28;20342;-84
2021/10/10 05:14:36;;;;;;;21.97;13.23;;;3.90;95.50;;;;;;5008099;28;20223;-84
2021/10/10 05:17:03;;;;;;;19.60;13.20;;;4.00;95.40;;;;;;4994861;28;20196;-84
2021/10/10 05:19:30;;;;;;;18.60;13.03;;;4.00;95.40;;;;;;5009662;28;20219;-84
2021/10/10 05:21:58;;;;;;;20.23;13.47;;;4.10;95.30;;;;;;5005993;28;20203;-84
2021/10/10 05:24:27;;;;;;;20.13;13.93;;;4.10;95.30;;;;;;5002816;28;20234;-84
2021/10/10 05:26:54;;;;;;;23.87;14.23;;;4.10;95.30;;;;;;5015204;28;20183;-83
2021/10/10 05:29:21;;;;;;;20.20;14.30;;;4.10;95.50;;;;;;4999682;28;20230;-83
2021/10/10 05:31:48;;;;;;;21.90;14.43;;;4.10;95.70;;;;;;4994734;28;20648;-83
2021/10/10 05:34:15;;;;;;;22.60;14.30;;;4.10;95.60;;;;;;5000141;28;20588;-85
2021/10/10 05:36:42;;;;;;;19.90;14.53;;;4.00;95.70;;;;;;5000147;28;20286;-83
2021/10/10 05:39:10;;;;;;;21.07;13.97;;;4.00;95.90;;;;;;5003819;28;20201;-84
2021/10/10 05:41:37;;;;;;;22.47;14.23;;;4.10;96.00;;;;;;4996731;28;20195;-84
2021/10/10 05:44:04;;;;;;;21.20;14.37;;;4.10;95.90;;;;;;5004956;28;20310;-83
2021/10/10 05:46:31;;;;;;;23.80;14.13;;;4.10;95.70;;;;;;5004984;28;20200;-83
2021/10/10 05:48:58;;;;;;;21.40;14.87;;;4.20;95.70;;;;;;5002033;28;20203;-83
2021/10/10 05:51:25;;;;;;;20.97;14.77;;;4.20;95.80;;;;;;5014529;28;20197;-84
2021/10/10 05:53:52;;;;;;;22.17;14.90;;;4.20;95.80;;;;;;5000566;28;20231;-85
2021/10/10 05:56:20;;;;;;;25.40;14.27;;;4.20;96.20;;;;;;5000452;28;20207;-83
2021/10/10 05:58:51;;;;;;;22.33;14.17;;;4.30;95.80;;;;;;5006345;28;20293;-83
2021/10/10 06:01:18;;;;;;;18.70;14.60;;;4.40;95.80;;;;;;4999781;28;20670;-83
2021/10/10 06:03:46;;;;;;;22.03;14.40;;;4.40;95.90;;;;;;5002448;28;20707;-84
2021/10/10 06:06:13;;;;;;;21.23;14.37;;;4.50;95.70;;;;;;5001364;28;20227;-84
2021/10/10 06:08:42;;;;;;;27.73;15.30;;;4.50;95.70;;;;;;5011438;28;20659;-84
2021/10/10 06:11:10;;;;;;;21.90;14.43;;;4.50;95.80;;;;;;4999039;28;20545;-83
2021/10/10 06:13:38;;;;;;;21.93;15.43;;;4.60;96.10;;;;;;4994801;28;20622;-85
2021/10/10 06:16:06;;;;;;;22.63;14.80;;;4.60;95.80;;;;;;5007348;28;20206;-84
2021/10/10 06:18:34;;;;;;;19.37;14.27;;;4.70;95.90;;;;;;5006212;28;20223;-83
2021/10/10 06:21:01;;;;;;;21.03;15.30;;;4.70;95.90;;;;;;5000370;28;20208;-84
2021/10/10 06:23:27;;;;;;;23.97;15.97;;;4.70;96.00;;;;;;5001082;28;20235;-85
2021/10/10 06:25:54;;;;;;;20.47;15.07;;;4.80;95.90;;;;;;5001924;28;20576;-86
2021/10/10 06:28:21;;;;;;;27.77;16.07;;;4.80;95.80;;;;;;4995126;28;20948;-83
2021/10/10 06:30:50;;;;;;;20.93;15.97;;;4.80;95.80;;;;;;5002394;28;20223;-84
2021/10/10 06:33:17;;;;;;;27.63;16.27;;;4.80;96.00;;;;;;4998809;28;20223;-84
2021/10/10 06:35:44;;;;;;;24.23;15.93;;;4.90;95.90;;;;;;5010220;28;20195;-84
2021/10/10 06:38:31;;;;;;;20.40;14.90;;;4.80;95.70;;;;;;5005932;28;20231;-84
2021/10/10 06:40:57;;;;;;;23.27;15.50;;;4.90;95.80;;;;;;5013727;28;20674;-83
2021/10/10 06:43:42;;;;;;;22.63;14.73;;;5.00;95.60;;;;;;5000547;28;20224;-84
2021/10/10 06:46:10;;;;;;;21.07;13.57;;;5.10;95.10;;;;;;4993382;28;20315;-85
2021/10/10 06:48:37;;;;;;;18.67;13.47;;;5.10;95.60;;;;;;5009896;28;20227;-85
2021/10/10 06:51:04;;;;;;;20.07;14.60;;;5.20;95.40;;;;;;5014081;28;20678;-85
2021/10/10 06:56:53;;;;;;;22.77;15.13;;;5.20;95.40;;;;;;5015211;28;20182;-88
2021/10/10 06:59:20;;;;;;;24.67;14.77;;;5.20;95.10;;;;;;5000285;28;20712;-89
2021/10/10 07:01:48;;;;;;;21.93;14.90;;;5.20;95.10;;;;;;5008936;28;20203;-86
2021/10/10 07:04:15;;;;;;;23.33;14.70;;;5.10;95.10;;;;;;5014801;28;20310;-88
2021/10/10 07:06:42;;;;;;;21.60;15.47;;;5.20;95.10;;;;;;4999090;28;20235;-85
2021/10/10 07:09:11;;;;;;;24.53;14.53;;;5.30;95.10;;;;;;5001829;28;20219;-88
2021/10/10 07:11:38;;;;;;;21.70;13.90;;;5.40;94.70;;;;;;5009065;28;20567;-89
2021/10/10 07:14:06;;;;;;;18.30;14.27;;;5.60;94.50;;;;;;5005829;28;20228;-89
2021/10/10 07:16:34;;;;;;;21.63;14.47;;;5.70;94.70;;;;;;5006046;28;20203;-89
2021/10/10 07:19:05;;;;;;;21.17;15.07;;;5.70;94.20;;;;;;5001765;28;20307;-89
2021/10/10 07:21:44;;;;;;;21.73;14.60;;;5.70;93.60;;;;;;5002441;28;20571;-87
2021/10/10 07:27:12;;;;;;;21.37;14.97;;;5.70;93.30;;;;;;4967826;28;20189;-90
2021/10/10 07:29:39;;;;;;;21.17;14.00;;;5.80;93.00;;;;;;4970146;28;20394;-89
2021/10/10 07:32:06;;;;;;;24.17;14.17;;;5.80;92.80;;;;;;4983574;28;20202;-88
2021/10/10 07:34:35;;;;;;;21.83;13.47;;;5.80;92.30;;;;;;5003580;28;20267;-89
2021/10/10 07:37:02;;;;;;;23.70;14.90;;;5.90;92.30;;;;;;5004364;28;20204;-91
2021/10/10 07:39:29;;;;;;;23.27;14.23;;;6.00;92.50;;;;;;5008956;28;20223;-91
2021/10/10 07:41:56;;;;;;;24.17;14.67;;;6.10;92.20;;;;;;5007893;28;20547;-93
2021/10/10 07:44:28;;;;;;;18.33;13.20;;;6.10;91.70;;;;;;5010576;28;20270;-94
2021/10/10 07:47:06;;;;;;;23.07;14.47;;;6.10;91.10;;;;;;5005733;28;20203;-89
2021/10/10 07:49:35;;;;;;;21.07;14.33;;;6.20;90.90;;;;;;5020641;28;20242;-88
2021/10/10 07:52:03;;;;;;;19.10;12.30;;;6.30;90.30;;;;;;5002604;28;20196;-87
2021/10/10 07:54:30;;;;;;;19.60;12.70;;;6.30;90.20;;;;;;5011913;28;20237;-89
2021/10/10 07:56:57;;;;;;;22.93;12.93;;;6.30;90.70;;;;;;5013937;28;20210;-88
2021/10/10 07:59:24;;;;;;;21.63;13.17;;;6.30;90.50;;;;;;4998448;28;20246;-89
2021/10/10 08:01:52;;;;;;;21.10;13.43;;;6.40;90.40;;;;;;5015551;28;20215;-90
2021/10/10 08:04:19;;;;;;;19.67;13.20;;;6.40;89.80;;;;;;5017707;28;20223;-90
2021/10/10 08:06:48;;;;;;;19.30;14.10;;;6.40;90.80;;;;;;5018266;28;20662;-91
2021/10/10 08:09:15;;;;;;;23.50;13.23;;;6.60;90.50;;;;;;5017916;28;20223;-90
2021/10/10 08:11:42;;;;;;;19.87;13.73;;;6.80;90.00;;;;;;5015492;28;20701;-90
2021/10/10 08:14:10;;;;;;;20.33;13.90;;;6.90;89.50;;;;;;5015921;28;20227;-89
2021/10/10 08:16:37;;;;;;;19.77;13.10;;;6.90;88.20;;;;;;5010344;28;20228;-88
2021/10/10 08:19:04;;;;;;;19.17;13.50;;;6.90;88.40;;;;;;5016651;28;20227;-88
2021/10/10 08:21:32;;;;;;;16.92;13.27;;;6.90;87.90;;;;;;5010868;28;20211;-88
2021/10/10 08:24:02;;;;;;;18.08;13.10;;;6.90;87.50;;;;;;5016344;28;20239;-88
2021/10/10 08:26:29;;;;;;;17.57;13.10;;;7.10;87.70;;;;;;5011000;28;20576;-86
2021/10/10 08:28:56;;;;;;;23.30;13.05;;;7.10;86.30;;;;;;5004644;28;20224;-86
2021/10/10 08:31:25;;;;;;;18.17;12.27;;;7.30;87.60;;;;;;5004866;28;20188;-88
2021/10/10 08:33:52;;;;;;;19.88;12.75;;;7.40;87.60;;;;;;5019888;28;20314;-87
2021/10/10 08:36:20;;;;;;;20.20;13.50;;;7.50;85.00;;;;;;5020236;28;20234;-91
2021/10/10 08:38:48;;;;;;;21.50;13.23;;;7.40;84.30;;;;;;5017921;28;20254;-87
2021/10/10 08:41:18;;;;;;;18.75;13.48;;;7.40;85.60;;;;;;5017730;28;20195;-90
2021/10/10 08:46:29;;;;;;;19.10;13.18;;;7.80;84.20;;;;;;5005650;28;20300;-88
2021/10/10 08:48:56;;;;;;;20.73;12.98;;;8.00;83.90;;;;;;5011208;28;20214;-86
2021/10/10 08:51:24;;;;;;;22.23;14.15;;;7.90;81.90;;;;;;5022724;28;20629;-87
2021/10/10 08:53:51;;;;;;;19.85;13.93;;;8.20;82.40;;;;;;5009871;28;20227;-87
2021/10/10 08:56:39;;;;;;;19.70;13.93;;;8.40;82.20;;;;;;5014988;28;20286;-87
2021/10/10 08:59:06;;;;;;;18.77;14.20;;;8.50;80.30;;;;;;5008202;28;20223;-87
2021/10/10 09:01:39;;;;;;;24.77;14.73;;;8.60;78.60;;;;;;5023090;28;20214;-87
2021/10/10 09:07:28;;;;;;;21.60;14.70;;;9.80;74.70;;;;;;5010454;28;20183;-92
2021/10/10 09:09:55;;;;;;;22.13;14.48;;;11.30;62.10;;;;;;4999093;28;20281;-90
2021/10/10 09:12:29;;;;;;;24.60;15.82;;;11.90;54.70;;;;;;5004548;28;20220;-88
2021/10/10 09:14:56;;;;;;;22.05;15.82;;;13.70;46.90;;;;;;5002498;28;20299;-88
2021/10/10 09:17:24;;;;;;;20.95;14.73;;;13.30;39.30;;;;;;5016150;28;20201;-86
2021/10/10 09:19:53;;;;;;;20.35;16.10;;;14.30;40.10;;;;;;5005427;28;20285;-87
2021/10/10 09:22:21;;;;;;;23.40;16.20;;;15.50;34.10;;;;;;5004217;28;20203;-87
2021/10/10 09:24:48;;;;;;;23.35;16.20;;;15.60;31.60;;;;;;4997016;28;20228;-88
2021/10/10 09:27:19;;;;;;;17.95;15.65;;;16.60;30.10;;;;;;5012775;28;20227;-85
2021/10/10 09:29:52;;;;;;;18.00;14.95;;;17.10;28.70;;;;;;5013690;28;20283;-85
2021/10/10 09:32:21;;;;;;;22.98;16.60;;;18.10;27.90;;;;;;5008905;28;20208;-88
2021/10/10 09:34:49;;;;;;;24.95;16.83;;;18.60;25.30;;;;;;4999448;28;20679;-86
2021/10/10 09:37:21;;;;;;;20.00;15.82;;;18.70;25.10;;;;;;5007238;28;20204;-87
2021/10/10 09:39:55;;;;;;;17.20;15.10;;;18.90;23.70;;;;;;5003444;28;20218;-89
2021/10/10 09:42:35;;;;;;;19.05;16.48;;;18.00;25.70;;;;;;5005259;28;20207;-87
2021/10/10 09:45:20;;;;;;;17.95;15.38;;;16.20;28.90;;;;;;5007725;28;20228;-84
2021/10/10 09:47:50;;;;;;;19.25;15.82;;;17.00;26.80;;;;;;5011438;28;20246;-87
2021/10/10 09:50:17;;;;;;;18.42;16.20;;;17.00;27.80;;;;;;5009121;28;20225;-87
2021/10/10 09:52:44;;;;;;;22.55;15.00;;;16.90;27.40;;;;;;5004396;28;20233;-86
2021/10/10 09:55:12;;;;;;;18.00;15.43;;;17.10;28.30;;;;;;5008490;28;20214;-84
2021/10/10 09:57:46;;;;;;;21.30;15.63;;;18.10;25.40;;;;;;5006813;28;20659;-84
2021/10/10 10:00:22;;;;;;;22.55;16.38;;;18.60;23.70;;;;;;4995232;28;20202;-83
2021/10/10 10:02:50;;;;;;;17.20;15.35;;;17.30;25.70;;;;;;5003537;28;20227;-84
2021/10/10 10:05:26;;;;;;;17.60;14.70;;;17.10;27.70;;;;;;5004316;28;20203;-84
2021/10/10 10:07:54;;;;;;;18.85;14.65;;;18.20;27.10;;;;;;5008208;28;20231;-85
2021/10/10 10:10:21;;;;;;;17.00;14.88;;;18.60;25.00;;;;;;5004502;28;20578;-85
2021/10/10 10:12:49;;;;;;;18.00;15.68;;;19.10;24.10;;;;;;5003356;28;20675;-86
2021/10/10 10:15:18;;;;;;;19.33;16.00;;;18.10;26.00;;;;;;5006060;28;20204;-84
2021/10/10 10:17:48;;;;;;;19.67;16.20;;;17.70;25.20;;;;;;5001811;28;20364;-83
2021/10/10 10:20:16;;;;;;;20.73;14.85;;;17.40;27.70;;;;;;5002705;28;20203;-85
2021/10/10 10:22:44;;;;;;;17.88;15.77;;;17.30;29.70;;;;;;4999025;28;20200;-87
2021/10/10 10:25:11;;;;;;;18.23;14.98;;;17.50;30.00;;;;;;5009901;28;20195;-88
2021/10/10 10:27:38;;;;;;;17.20;14.57;;;17.80;26.10;;;;;;5008276;28;20233;-88
2021/10/10 10:30:07;;;;;;;17.63;14.02;;;17.80;27.60;;;;;;4999894;28;20200;-85
2021/10/10 10:32:35;;;;;;;21.63;15.35;;;18.80;25.30;;;;;;5014393;28;20206;-86
2021/10/10 10:35:11;;;;;;;16.27;13.90;;;18.50;25.50;;;;;;5012878;28;20207;-86
2021/10/10 10:37:55;;;;;;;17.88;14.50;;;18.30;27.20;;;;;;4998693;28;20199;-87
2021/10/10 10:40:34;;;;;;;21.13;14.20;;;19.00;28.40;;;;;;5000673;28;20207;-87
2021/10/10 10:43:04;;;;;;;16.83;13.45;;;19.30;25.80;;;;;;5009156;28;20310;-87
2021/10/10 10:45:33;;;;;;;18.08;13.63;;;19.60;23.30;;;;;;5006845;28;20211;-87
2021/10/10 10:48:02;;;;;;;17.58;13.52;;;19.80;23.00;;;;;;5001726;28;20242;-86
2021/10/10 10:50:32;;;;;;;19.17;14.93;;;19.60;25.50;;;;;;5003930;28;20538;-86
2021/10/10 10:53:00;;;;;;;19.27;14.70;;;18.80;24.50;;;;;;5010563;28;20226;-85
2021/10/10 10:55:30;;;;;;;19.35;14.85;;;18.00;27.10;;;;;;5010265;28;20659;-87
2021/10/10 10:57:59;;;;;;;17.88;15.38;;;16.90;29.50;;;;;;5005911;28;20226;-88
2021/10/10 11:00:29;;;;;;;16.40;14.43;;;15.90;31.10;;;;;;5010079;28;20621;-88
2021/10/10 11:03:11;;;;;;;18.58;13.90;;;15.70;31.90;;;;;;5007645;28;20226;-87
2021/10/10 11:05:42;;;;;;;19.27;14.10;;;15.10;32.70;;;;;;5007819;28;20215;-86
2021/10/10 11:08:31;;;;;;;18.67;13.30;;;14.80;37.90;;;;;;5018873;28;20287;-88
2021/10/10 11:11:16;;;;;;;19.63;13.32;;;14.30;38.60;;;;;;5008582;28;20845;-87
2021/10/10 11:13:49;;;;;;;19.13;12.88;;;14.30;40.00;;;;;;5007278;28;20247;-91
2021/10/10 11:16:18;;;;;;;20.90;12.95;;;14.20;40.80;;;;;;5003714;28;20203;-91
2021/10/10 11:18:50;;;;;;;20.08;13.25;;;13.60;39.60;;;;;;5006916;28;20248;-90
2021/10/10 11:21:21;;;;;;;19.38;12.82;;;13.70;44.00;;;;;;4999937;28;20200;-90
2021/10/10 11:23:52;;;;;;;18.13;12.93;;;13.90;40.60;;;;;;5014935;28;20227;-90
2021/10/10 11:26:21;;;;;;;16.85;12.45;;;13.70;38.70;;;;;;5012728;28;20230;-89
2021/10/10 11:28:50;;;;;;;18.48;11.93;;;13.50;39.40;;;;;;5021719;28;20223;-90
2021/10/10 11:31:20;;;;;;;15.68;11.82;;;13.60;41.00;;;;;;5007342;28;20204;-88
2021/10/10 11:33:55;;;;;;;18.58;12.98;;;13.20;41.00;;;;;;5004935;28;20236;-88
2021/10/10 11:39:40;;;;;;;14.80;11.48;;;12.20;48.80;;;;;;5019481;28;20222;-88
2021/10/10 11:42:37;;;;;;;18.40;12.00;;;12.20;48.80;;;;;;5025831;28;20219;-88
2021/10/10 11:48:36;;;;;;;18.05;10.75;;;12.70;49.20;;;;;;5012299;28;20245;-89
2021/10/10 11:55:06;;;;;;;14.20;9.93;;;12.60;44.50;;;;;;5022793;28;20226;-88
2021/10/10 11:57:35;;;;;;;17.48;9.93;;;12.70;42.90;;;;;;5020179;28;20227;-89
2021/10/10 12:03:32;;;;;;;13.02;9.48;;;12.90;42.80;;;;;;5007317;28;20203;-88
2021/10/10 12:09:50;;;;;;;16.00;10.30;;;12.60;44.90;;;;;;5005047;28;20234;-88
2021/10/10 12:22:44;;;;;;;15.75;9.60;;;12.60;42.80;;;;;;5082568;28;20213;-88
2021/10/10 12:25:21;;;;;;;13.02;8.60;;;12.50;45.50;;;;;;5078564;28;20633;-88
2021/10/10 12:27:56;;;;;;;15.82;9.60;;;12.80;39.90;;;;;;5071392;28;20307;-88
2021/10/10 12:30:26;;;;;;;15.40;8.77;;;12.60;40.00;;;;;;5078879;28;20203;-88
2021/10/10 12:32:58;;;;;;;12.88;8.13;;;12.70;43.10;;;;;;5085248;28;20227;-88
2021/10/10 12:38:54;;;;;;;9.52;6.65;;;13.00;37.40;;;;;;5088167;28;20184;-88
2021/10/10 12:41:41;;;;;;;13.90;7.63;;;12.90;33.40;;;;;;5083700;28;20190;-88
2021/10/10 12:44:16;;;;;;;11.45;6.35;;;12.90;35.00;;;;;;5063404;28;20289;-88
2021/10/10 12:46:53;;;;;;;10.20;5.97;;;12.90;34.00;;;;;;5066319;28;20236;-88
2021/10/10 12:56:25;;;;;;;8.30;5.43;;;13.20;32.70;;;;;;5084207;28;20193;-88
2021/10/10 12:59:08;;;;;;;9.38;5.00;;;13.00;29.70;;;;;;5094058;27;20201;-88
2021/10/10 13:05:44;;;;;;;11.32;6.72;;;13.10;29.20;;;;;;5086583;28;20188;-88
2021/10/10 13:08:11;;;;;;;5.82;4.78;;;13.20;29.00;;;;;;5085847;27;20270;-88
2021/10/10 13:11:14;;;;;;;6.68;5.03;;;13.00;29.30;;;;;;5085063;28;20260;-87
2021/10/10 13:13:43;;;;;;;6.07;4.65;;;12.90;28.30;;;;;;5082649;28;20232;-87
2021/10/10 13:16:10;;;;;;;8.32;4.60;;;12.90;28.40;;;;;;5082424;28;20193;-88
2021/10/10 13:18:38;;;;;;;7.90;4.70;;;12.90;28.90;;;;;;5081531;28;20256;-88
2021/10/10 13:21:06;;;;;;;10.43;5.28;;;12.80;29.10;;;;;;5084182;28;20209;-88
2021/10/10 13:23:33;;;;;;;12.43;6.15;;;12.80;28.10;;;;;;5074098;28;20269;-88
2021/10/10 13:26:01;;;;;;;10.23;4.82;;;12.90;29.80;;;;;;5067582;28;20212;-89
2021/10/10 13:28:29;;;;;;;7.75;5.35;;;13.00;26.10;;;;;;5083005;28;20319;-87
2021/10/10 13:31:26;;;;;;;8.60;5.15;;;12.90;27.50;;;;;;5079473;28;20546;-88
2021/10/10 13:33:53;;;;;;;11.88;6.07;;;12.80;28.50;;;;;;5077543;28;20220;-90
2021/10/10 13:36:20;;;;;;;9.68;5.38;;;12.70;29.20;;;;;;5079092;28;20198;-89
2021/10/10 13:38:47;;;;;;;9.80;5.47;;;12.60;29.20;;;;;;5075325;28;20288;-88
2021/10/10 13:41:14;;;;;;;10.32;5.78;;;12.60;30.20;;;;;;5070925;28;20265;-88